Barfleur — FNIE — position and weather

sailwx.info

Track history (hours):
 
Tides and Currents Weather Stations Pressure Air Temp Water Temp Dewpoint Dewpoint Depression Visibility Wind Speed Wind Dir Waves Ship Positions

Barfleur

Operator: Brittany Ferries

Last reported at 2016-Aug-25 11:17 UTC. Time now 2016-Aug-25 16:40 UTC.
Position N 49°41' W 001°36'.

Length 158 m; draft 5 m.

Type: Passenger vessel. MMSI: 227289000.

Date/timePositionNaut miles runAvg speedWind from/ knotsBaromVisibWave heightAir tempDewpointWater temp
2016-Aug-25 11:17N 49°41' W 001°36'1317.6
2016-Aug-25 10:33N 49°53' W 001°34'1918.5
2016-Aug-25 09:33N 50°11' W 001°43'2118.3
2016-Aug-25 08:25N 50°31' W 001°51'1214.2
2016-Aug-25 07:33N 50°42' W 001°59'0 0.3
2016-Aug-25 06:34N 50°42' W 001°59'0 0.0
2016-Aug-25 04:33N 50°42' W 001°59'0 0.0
2016-Aug-25 03:33N 50°42' W 001°59'0 0.0
2016-Aug-25 02:33N 50°42' W 001°59'0 0.0
2016-Aug-25 01:33N 50°42' W 001°59'0 0.0
2016-Aug-25 00:33N 50°42' W 001°59'0 0.0
2016-Aug-24 23:33N 50°42' W 001°59'0 0.0
2016-Aug-24 22:33N 50°42' W 001°59'0 0.0
2016-Aug-24 21:34N 50°42' W 001°59'1 0.7
2016-Aug-24 20:33N 50°42' W 001°58'3216.0
2016-Aug-24 18:32N 50°11' W 001°45'2217.8
2016-Aug-24 17:20N 49°50' W 001°43'6 0.9
2016-Aug-24 10:34N 49°55' W 001°37'1918.8
2016-Aug-24 09:33N 50°13' W 001°46'1716.8
2016-Aug-24 08:33N 50°29' W 001°52'1414.1
2016-Aug-24 07:33N 50°42' W 001°59'0 0.3
2016-Aug-24 06:34N 50°42' W 001°59'0 0.0
2016-Aug-24 04:34N 50°42' W 001°59'0 0.0
2016-Aug-24 03:34N 50°42' W 001°59'0 0.0
2016-Aug-24 02:34N 50°42' W 001°59'0 0.0
2016-Aug-24 01:34N 50°42' W 001°59'0 0.0
2016-Aug-24 00:34N 50°42' W 001°59'0 0.0
2016-Aug-23 23:34N 50°42' W 001°59'0 0.0
2016-Aug-23 22:33N 50°42' W 001°59'0 0.0
2016-Aug-23 21:34N 50°42' W 001°59'0 0.2
2016-Aug-23 20:34N 50°42' W 001°59'1413.6
2016-Aug-23 19:33N 50°30' W 001°52'13 1.3
2016-Aug-23 09:20N 50°17' W 001°47'1418.0
2016-Aug-23 08:33N 50°30' W 001°51'1313.0
2016-Aug-23 07:33N 50°42' W 001°59'0 0.4
2016-Aug-23 06:34N 50°42' W 001°59'0 0.0
2016-Aug-23 05:34N 50°42' W 001°59'0 0.0
2016-Aug-23 04:34N 50°42' W 001°59'0 0.0
2016-Aug-23 03:34N 50°42' W 001°59'0 0.0
2016-Aug-23 02:34N 50°42' W 001°59'0 0.0
2016-Aug-23 01:33N 50°42' W 001°59'0 0.0
2016-Aug-23 00:34N 50°42' W 001°59'0 0.0
2016-Aug-22 23:34N 50°42' W 001°59'0 0.0
2016-Aug-22 22:34N 50°42' W 001°59'0 0.0
2016-Aug-22 21:34N 50°42' W 001°59'0 0.4
2016-Aug-22 20:33N 50°42' W 001°59'1515.1
2016-Aug-22 19:33N 50°28' W 001°50'1918.7
2016-Aug-22 18:33N 50°10' W 001°46'21 2.1
2016-Aug-22 08:30N 50°31' W 001°51'1213.2
2016-Aug-22 07:33N 50°42' W 001°58'1 0.9
2016-Aug-22 06:33N 50°42' W 001°59'0 0.0
2016-Aug-22 05:33N 50°42' W 001°59'0 0.0
2016-Aug-22 04:33N 50°42' W 001°59'0 0.0
2016-Aug-22 03:33N 50°42' W 001°59'0 0.0
2016-Aug-22 02:33N 50°42' W 001°59'0 0.0
2016-Aug-22 01:33N 50°42' W 001°59'0 0.0
2016-Aug-22 00:33N 50°42' W 001°59'0 0.0
2016-Aug-21 23:33N 50°42' W 001°59'0 0.0
2016-Aug-21 22:33N 50°42' W 001°59'0 0.0
2016-Aug-21 21:33N 50°42' W 001°59'1 0.6
2016-Aug-21 20:33N 50°42' W 001°59'4017.0
2016-Aug-21 18:13N 50°03' W 001°46'29 3.0
2016-Aug-21 08:33N 50°32' W 001°52'1211.7
2016-Aug-21 07:33N 50°42' W 001°59'0 0.1
2016-Aug-21 06:33N 50°42' W 001°59'0 0.0
2016-Aug-21 05:33N 50°42' W 001°59'0 0.0
2016-Aug-21 04:33N 50°42' W 001°59'0 0.0
2016-Aug-21 03:33N 50°42' W 001°59'0 0.0
2016-Aug-21 02:33N 50°42' W 001°59'0 0.0
2016-Aug-21 01:34N 50°42' W 001°59'0 0.0
2016-Aug-21 00:33N 50°42' W 001°59'0 0.0
2016-Aug-20 23:33N 50°42' W 001°59'0 0.0
2016-Aug-20 22:33N 50°42' W 001°59'0 0.0
2016-Aug-20 21:33N 50°42' W 001°59'1 1.2
2016-Aug-20 20:33N 50°42' W 001°58'8 0.7
2016-Aug-20 08:33N 50°34' W 001°53'9 9.2
2016-Aug-20 07:34N 50°42' W 001°59'0 0.0
2016-Aug-20 06:33N 50°42' W 001°59'0 0.0
2016-Aug-20 05:33N 50°42' W 001°59'0 0.0
2016-Aug-20 04:33N 50°42' W 001°59'0 0.0
2016-Aug-20 03:33N 50°42' W 001°59'0 0.0
2016-Aug-20 02:33N 50°42' W 001°59'0 0.0
2016-Aug-20 01:33N 50°42' W 001°59'0 0.0
2016-Aug-20 00:33N 50°42' W 001°59'0 0.0
2016-Aug-19 23:33N 50°42' W 001°59'0 0.0
2016-Aug-19 22:33N 50°42' W 001°59'0 0.0
2016-Aug-19 21:33N 50°42' W 001°59'2 1.8
2016-Aug-19 20:33N 50°41' W 001°57'45 4.5
2016-Aug-19 10:27N 49°58' W 001°40'3518.0
2016-Aug-19 08:32N 50°32' W 001°51'1212.3
2016-Aug-19 07:33N 50°42' W 001°59'0 0.1
2016-Aug-19 06:34N 50°42' W 001°59'0 0.0
2016-Aug-19 05:33N 50°42' W 001°59'0 0.0
2016-Aug-19 04:33N 50°42' W 001°59'0 0.0
2016-Aug-19 03:33N 50°42' W 001°59'0 0.0
2016-Aug-19 02:33N 50°42' W 001°59'0 0.0
2016-Aug-19 01:34N 50°42' W 001°59'0 0.0
2016-Aug-19 00:33N 50°42' W 001°59'0 0.0
2016-Aug-18 23:33N 50°42' W 001°59'0 0.0
2016-Aug-18 22:33N 50°42' W 001°59'0 0.0
2016-Aug-18 21:33N 50°42' W 001°59'0 0.3
2016-Aug-18 20:34N 50°42' W 001°59'1414.1
2016-Aug-18 19:33N 50°29' W 001°51'3618.1
2016-Aug-18 17:33N 49°53' W 001°43'38 4.2
2016-Aug-18 08:28N 50°31' W 001°51'1213.2
2016-Aug-18 07:33N 50°42' W 001°58'1 0.9
2016-Aug-18 06:34N 50°42' W 001°59'0 0.0
2016-Aug-18 05:34N 50°42' W 001°59'0 0.0
2016-Aug-18 04:34N 50°42' W 001°59'0 0.0
2016-Aug-18 03:34N 50°42' W 001°59'0 0.0
2016-Aug-18 02:34N 50°42' W 001°59'0 0.0
2016-Aug-18 01:34N 50°42' W 001°59'0 0.0
2016-Aug-18 00:34N 50°42' W 001°59'0 0.0
2016-Aug-17 23:34N 50°42' W 001°59'0 0.0
2016-Aug-17 22:34N 50°42' W 001°59'0 0.0
2016-Aug-17 21:33N 50°42' W 001°59'2 2.0
2016-Aug-17 20:34N 50°41' W 001°57'1716.9
2016-Aug-17 19:33N 50°24' W 001°52'1717.4
2016-Aug-17 18:33N 50°07' W 001°46'1817.8
2016-Aug-17 17:33N 49°50' W 001°42'1211.6
2016-Aug-17 16:33N 49°39' W 001°37'0 0.0
2016-Aug-17 15:27N 49°39' W 001°37'6 6.5
2016-Aug-17 14:34N 49°44' W 001°40'6 5.8
2016-Aug-17 13:33N 49°39' W 001°37'0 0.0
2016-Aug-17 12:32N 49°39' W 001°37'0 0.2
2016-Aug-17 11:29N 49°39' W 001°37'1414.8
2016-Aug-17 10:34N 49°52' W 001°44'1818.2
2016-Aug-17 09:33N 50°10' W 001°48'1918.3
2016-Aug-17 08:31N 50°29' W 001°52'1414.6
2016-Aug-17 07:33N 50°42' W 001°58'1 0.8
2016-Aug-17 06:33N 50°42' W 001°59'0 0.0
2016-Aug-17 05:34N 50°42' W 001°59'0 0.0
2016-Aug-17 04:33N 50°42' W 001°59'0 0.0
2016-Aug-17 03:34N 50°42' W 001°59'0 0.0
2016-Aug-17 02:34N 50°42' W 001°59'0 0.0
2016-Aug-17 01:33N 50°42' W 001°59'0 0.0
2016-Aug-17 00:34N 50°42' W 001°59'0 0.0
2016-Aug-16 23:34N 50°42' W 001°59'0 0.0
2016-Aug-16 22:33N 50°42' W 001°59'0 0.0
2016-Aug-16 21:33N 50°42' W 001°59'0 0.1
2016-Aug-16 20:33N 50°42' W 001°60'1313.4
2016-Aug-16 19:33N 50°30' W 001°52'1818.0
2016-Aug-16 18:33N 50°12' W 001°48'1817.9
2016-Aug-16 17:33N 49°54' W 001°43'1615.8
2016-Aug-16 16:33N 49°39' W 001°37'0 0.1
2016-Aug-16 12:32N 49°39' W 001°37'0 0.0
2016-Aug-16 11:33N 49°39' W 001°37'1414.4
2016-Aug-16 10:34N 49°52' W 001°43'1717.1
2016-Aug-16 09:34N 50°09' W 001°47'1918.3
2016-Aug-16 08:30N 50°28' W 001°52'1415.0
2016-Aug-16 07:33N 50°42' W 001°58'1 0.4
2016-Aug-16 04:34N 50°42' W 001°59'0 0.0
2016-Aug-16 03:33N 50°42' W 001°59'0 0.0
2016-Aug-16 02:34N 50°42' W 001°59'0 0.0
2016-Aug-16 01:33N 50°42' W 001°59'0 0.0
2016-Aug-16 00:34N 50°42' W 001°59'0 0.0
2016-Aug-15 23:33N 50°42' W 001°59'0 0.0
2016-Aug-15 22:34N 50°42' W 001°59'0 0.0
2016-Aug-15 21:34N 50°42' W 001°59'0 0.1
2016-Aug-15 20:33N 50°42' W 001°59'1312.6
2016-Aug-15 19:33N 50°31' W 001°52'1818.1
2016-Aug-15 18:33N 50°13' W 001°47'1818.1
2016-Aug-15 17:34N 49°55' W 001°43'16 2.6
2016-Aug-15 11:28N 49°40' W 001°37'  
Track history (hours):
 
Tides and Currents Weather Stations Pressure Air Temp Water Temp Dewpoint Dewpoint Depression Visibility Wind Speed Wind Dir Waves Ship Positions

Barfleur

Operator: Brittany Ferries

Last reported at 2016-Aug-25 11:17 UTC. Time now 2016-Aug-25 16:40 UTC.
Position N 49°41' W 001°36'.

Length 158 m; draft 5 m.

Type: Passenger vessel. MMSI: 227289000.

Date/timePositionNaut miles runAvg speedWind from/ knotsBaromVisibWave heightAir tempDewpointWater temp
2016-Aug-25 11:17N 49°41' W 001°36'1317.6
2016-Aug-25 10:33N 49°53' W 001°34'1918.5
2016-Aug-25 09:33N 50°11' W 001°43'2118.3
2016-Aug-25 08:25N 50°31' W 001°51'1214.2
2016-Aug-25 07:33N 50°42' W 001°59'0 0.3
2016-Aug-25 06:34N 50°42' W 001°59'0 0.0
2016-Aug-25 04:33N 50°42' W 001°59'0 0.0
2016-Aug-25 03:33N 50°42' W 001°59'0 0.0
2016-Aug-25 02:33N 50°42' W 001°59'0 0.0
2016-Aug-25 01:33N 50°42' W 001°59'0 0.0
2016-Aug-25 00:33N 50°42' W 001°59'0 0.0
2016-Aug-24 23:33N 50°42' W 001°59'0 0.0
2016-Aug-24 22:33N 50°42' W 001°59'0 0.0
2016-Aug-24 21:34N 50°42' W 001°59'1 0.7
2016-Aug-24 20:33N 50°42' W 001°58'3216.0
2016-Aug-24 18:32N 50°11' W 001°45'2217.8
2016-Aug-24 17:20N 49°50' W 001°43'6 0.9
2016-Aug-24 10:34N 49°55' W 001°37'1918.8
2016-Aug-24 09:33N 50°13' W 001°46'1716.8
2016-Aug-24 08:33N 50°29' W 001°52'1414.1
2016-Aug-24 07:33N 50°42' W 001°59'0 0.3
2016-Aug-24 06:34N 50°42' W 001°59'0 0.0
2016-Aug-24 04:34N 50°42' W 001°59'0 0.0
2016-Aug-24 03:34N 50°42' W 001°59'0 0.0
2016-Aug-24 02:34N 50°42' W 001°59'0 0.0
2016-Aug-24 01:34N 50°42' W 001°59'0 0.0
2016-Aug-24 00:34N 50°42' W 001°59'0 0.0
2016-Aug-23 23:34N 50°42' W 001°59'0 0.0
2016-Aug-23 22:33N 50°42' W 001°59'0 0.0
2016-Aug-23 21:34N 50°42' W 001°59'0 0.2
2016-Aug-23 20:34N 50°42' W 001°59'1413.6
2016-Aug-23 19:33N 50°30' W 001°52'13 1.3
2016-Aug-23 09:20N 50°17' W 001°47'1418.0
2016-Aug-23 08:33N 50°30' W 001°51'1313.0
2016-Aug-23 07:33N 50°42' W 001°59'0 0.4
2016-Aug-23 06:34N 50°42' W 001°59'0 0.0
2016-Aug-23 05:34N 50°42' W 001°59'0 0.0
2016-Aug-23 04:34N 50°42' W 001°59'0 0.0
2016-Aug-23 03:34N 50°42' W 001°59'0 0.0
2016-Aug-23 02:34N 50°42' W 001°59'0 0.0
2016-Aug-23 01:33N 50°42' W 001°59'0 0.0
2016-Aug-23 00:34N 50°42' W 001°59'0 0.0
2016-Aug-22 23:34N 50°42' W 001°59'0 0.0
2016-Aug-22 22:34N 50°42' W 001°59'0 0.0
2016-Aug-22 21:34N 50°42' W 001°59'0 0.4
2016-Aug-22 20:33N 50°42' W 001°59'1515.1
2016-Aug-22 19:33N 50°28' W 001°50'1918.7
2016-Aug-22 18:33N 50°10' W 001°46'21 2.1
2016-Aug-22 08:30N 50°31' W 001°51'1213.2
2016-Aug-22 07:33N 50°42' W 001°58'1 0.9
2016-Aug-22 06:33N 50°42' W 001°59'0 0.0
2016-Aug-22 05:33N 50°42' W 001°59'0 0.0
2016-Aug-22 04:33N 50°42' W 001°59'0 0.0
2016-Aug-22 03:33N 50°42' W 001°59'0 0.0
2016-Aug-22 02:33N 50°42' W 001°59'0 0.0
2016-Aug-22 01:33N 50°42' W 001°59'0 0.0
2016-Aug-22 00:33N 50°42' W 001°59'0 0.0
2016-Aug-21 23:33N 50°42' W 001°59'0 0.0
2016-Aug-21 22:33N 50°42' W 001°59'0 0.0
2016-Aug-21 21:33N 50°42' W 001°59'1 0.6
2016-Aug-21 20:33N 50°42' W 001°59'4017.0
2016-Aug-21 18:13N 50°03' W 001°46'29 3.0
2016-Aug-21 08:33N 50°32' W 001°52'1211.7
2016-Aug-21 07:33N 50°42' W 001°59'0 0.1
2016-Aug-21 06:33N 50°42' W 001°59'0 0.0
2016-Aug-21 05:33N 50°42' W 001°59'0 0.0
2016-Aug-21 04:33N 50°42' W 001°59'0 0.0
2016-Aug-21 03:33N 50°42' W 001°59'0 0.0
2016-Aug-21 02:33N 50°42' W 001°59'0 0.0
2016-Aug-21 01:34N 50°42' W 001°59'0 0.0
2016-Aug-21 00:33N 50°42' W 001°59'0 0.0
2016-Aug-20 23:33N 50°42' W 001°59'0 0.0
2016-Aug-20 22:33N 50°42' W 001°59'0 0.0
2016-Aug-20 21:33N 50°42' W 001°59'1 1.2
2016-Aug-20 20:33N 50°42' W 001°58'8 0.7
2016-Aug-20 08:33N 50°34' W 001°53'9 9.2
2016-Aug-20 07:34N 50°42' W 001°59'0 0.0
2016-Aug-20 06:33N 50°42' W 001°59'0 0.0
2016-Aug-20 05:33N 50°42' W 001°59'0 0.0
2016-Aug-20 04:33N 50°42' W 001°59'0 0.0
2016-Aug-20 03:33N 50°42' W 001°59'0 0.0
2016-Aug-20 02:33N 50°42' W 001°59'0 0.0
2016-Aug-20 01:33N 50°42' W 001°59'0 0.0
2016-Aug-20 00:33N 50°42' W 001°59'0 0.0
2016-Aug-19 23:33N 50°42' W 001°59'0 0.0
2016-Aug-19 22:33N 50°42' W 001°59'0 0.0
2016-Aug-19 21:33N 50°42' W 001°59'2 1.8
2016-Aug-19 20:33N 50°41' W 001°57'45 4.5
2016-Aug-19 10:27N 49°58' W 001°40'3518.0
2016-Aug-19 08:32N 50°32' W 001°51'1212.3
2016-Aug-19 07:33N 50°42' W 001°59'0 0.1
2016-Aug-19 06:34N 50°42' W 001°59'0 0.0
2016-Aug-19 05:33N 50°42' W 001°59'0 0.0
2016-Aug-19 04:33N 50°42' W 001°59'0 0.0
2016-Aug-19 03:33N 50°42' W 001°59'0 0.0
2016-Aug-19 02:33N 50°42' W 001°59'0 0.0
2016-Aug-19 01:34N 50°42' W 001°59'0 0.0
2016-Aug-19 00:33N 50°42' W 001°59'0 0.0
2016-Aug-18 23:33N 50°42' W 001°59'0 0.0
2016-Aug-18 22:33N 50°42' W 001°59'0 0.0
2016-Aug-18 21:33N 50°42' W 001°59'0 0.3
2016-Aug-18 20:34N 50°42' W 001°59'1414.1
2016-Aug-18 19:33N 50°29' W 001°51'3618.1
2016-Aug-18 17:33N 49°53' W 001°43'38 4.2
2016-Aug-18 08:28N 50°31' W 001°51'1213.2
2016-Aug-18 07:33N 50°42' W 001°58'1 0.9
2016-Aug-18 06:34N 50°42' W 001°59'0 0.0
2016-Aug-18 05:34N 50°42' W 001°59'0 0.0
2016-Aug-18 04:34N 50°42' W 001°59'0 0.0
2016-Aug-18 03:34N 50°42' W 001°59'0 0.0
2016-Aug-18 02:34N 50°42' W 001°59'0 0.0
2016-Aug-18 01:34N 50°42' W 001°59'0 0.0
2016-Aug-18 00:34N 50°42' W 001°59'0 0.0
2016-Aug-17 23:34N 50°42' W 001°59'0 0.0
2016-Aug-17 22:34N 50°42' W 001°59'0 0.0
2016-Aug-17 21:33N 50°42' W 001°59'2 2.0
2016-Aug-17 20:34N 50°41' W 001°57'1716.9
2016-Aug-17 19:33N 50°24' W 001°52'1717.4
2016-Aug-17 18:33N 50°07' W 001°46'1817.8
2016-Aug-17 17:33N 49°50' W 001°42'1211.6
2016-Aug-17 16:33N 49°39' W 001°37'0 0.0
2016-Aug-17 15:27N 49°39' W 001°37'6 6.5
2016-Aug-17 14:34N 49°44' W 001°40'6 5.8
2016-Aug-17 13:33N 49°39' W 001°37'0 0.0
2016-Aug-17 12:32N 49°39' W 001°37'0 0.2
2016-Aug-17 11:29N 49°39' W 001°37'1414.8
2016-Aug-17 10:34N 49°52' W 001°44'1818.2
2016-Aug-17 09:33N 50°10' W 001°48'1918.3
2016-Aug-17 08:31N 50°29' W 001°52'1414.6
2016-Aug-17 07:33N 50°42' W 001°58'1 0.8
2016-Aug-17 06:33N 50°42' W 001°59'0 0.0
2016-Aug-17 05:34N 50°42' W 001°59'0 0.0
2016-Aug-17 04:33N 50°42' W 001°59'0 0.0
2016-Aug-17 03:34N 50°42' W 001°59'0 0.0
2016-Aug-17 02:34N 50°42' W 001°59'0 0.0
2016-Aug-17 01:33N 50°42' W 001°59'0 0.0
2016-Aug-17 00:34N 50°42' W 001°59'0 0.0
2016-Aug-16 23:34N 50°42' W 001°59'0 0.0
2016-Aug-16 22:33N 50°42' W 001°59'0 0.0
2016-Aug-16 21:33N 50°42' W 001°59'0 0.1
2016-Aug-16 20:33N 50°42' W 001°60'1313.4
2016-Aug-16 19:33N 50°30' W 001°52'1818.0
2016-Aug-16 18:33N 50°12' W 001°48'1817.9
2016-Aug-16 17:33N 49°54' W 001°43'1615.8
2016-Aug-16 16:33N 49°39' W 001°37'0 0.1
2016-Aug-16 12:32N 49°39' W 001°37'0 0.0
2016-Aug-16 11:33N 49°39' W 001°37'1414.4
2016-Aug-16 10:34N 49°52' W 001°43'1717.1
2016-Aug-16 09:34N 50°09' W 001°47'1918.3
2016-Aug-16 08:30N 50°28' W 001°52'1415.0
2016-Aug-16 07:33N 50°42' W 001°58'1 0.4
2016-Aug-16 04:34N 50°42' W 001°59'0 0.0
2016-Aug-16 03:33N 50°42' W 001°59'0 0.0
2016-Aug-16 02:34N 50°42' W 001°59'0 0.0
2016-Aug-16 01:33N 50°42' W 001°59'0 0.0
2016-Aug-16 00:34N 50°42' W 001°59'0 0.0
2016-Aug-15 23:33N 50°42' W 001°59'0 0.0
2016-Aug-15 22:34N 50°42' W 001°59'0 0.0
2016-Aug-15 21:34N 50°42' W 001°59'0 0.1
2016-Aug-15 20:33N 50°42' W 001°59'1312.6
2016-Aug-15 19:33N 50°31' W 001°52'1818.1
2016-Aug-15 18:33N 50°13' W 001°47'1818.1
2016-Aug-15 17:34N 49°55' W 001°43'16 2.6
2016-Aug-15 11:28N 49°40' W 001°37'  

Dump ship's entire track history